createdAt,value
2023-03-30T00:00:17.425Z,87.2
2023-03-30T00:01:17.004Z,87.1
2023-03-30T00:02:16.701Z,87.2
2023-03-30T00:03:17.527Z,87.2
2023-03-30T00:04:17.634Z,87.2
2023-03-30T00:05:17.349Z,87.1
2023-03-30T00:06:16.966Z,87.2
2023-03-30T00:07:16.561Z,87.3
2023-03-30T00:08:17.167Z,87.3
2023-03-30T00:09:16.731Z,87.1
2023-03-30T00:10:17.297Z,86.9
2023-03-30T00:11:16.850Z,86.8
2023-03-30T00:12:16.748Z,86.8
2023-03-30T00:13:17.341Z,86.8
2023-03-30T00:14:16.878Z,86.8
2023-03-30T00:15:17.481Z,86.8
2023-03-30T00:16:17.073Z,86.8
2023-03-30T00:17:16.680Z,86.8
2023-03-30T00:18:17.257Z,86.8
2023-03-30T00:19:17.132Z,86.7
2023-03-30T00:20:16.882Z,86.7
2023-03-30T00:21:17.462Z,86.8
2023-03-30T00:22:17.215Z,86.8
2023-03-30T00:23:16.756Z,86.8
2023-03-30T00:24:17.301Z,86.8
2023-03-30T00:25:16.890Z,87.1
2023-03-30T00:26:17.496Z,87.1
2023-03-30T00:27:17.123Z,86.9
2023-03-30T00:28:16.695Z,86.7
2023-03-30T00:29:17.260Z,86.7
2023-03-30T00:30:16.857Z,86.7
2023-03-30T00:31:17.499Z,86.7
2023-03-30T00:32:17.189Z,86.7
2023-03-30T00:33:16.753Z,86.7
2023-03-30T00:34:17.320Z,86.8
2023-03-30T00:35:16.946Z,86.7
2023-03-30T00:36:17.850Z,86.7
2023-03-30T00:37:17.476Z,86.7
2023-03-30T00:38:17.026Z,86.7
2023-03-30T00:39:16.595Z,86.6
2023-03-30T00:40:17.128Z,86.7
2023-03-30T00:41:16.706Z,86.6
2023-03-30T00:42:17.453Z,86.6
2023-03-30T00:43:17.028Z,86.6
2023-03-30T00:44:16.577Z,86.6
2023-03-30T00:45:17.153Z,86.6
2023-03-30T00:46:16.903Z,86.5
2023-03-30T00:47:17.518Z,86.6
2023-03-30T00:48:17.059Z,86.5
2023-03-30T00:49:16.596Z,86.5
2023-03-30T00:50:17.158Z,86.6
2023-03-30T00:51:16.705Z,86.6
2023-03-30T00:52:17.236Z,86.6
2023-03-30T00:53:16.784Z,86.5
2023-03-30T00:54:17.373Z,86.4
2023-03-30T00:55:16.907Z,86.4
2023-03-30T00:56:17.492Z,86.5
2023-03-30T00:57:17.252Z,86.5
2023-03-30T00:58:16.862Z,86.5
2023-03-30T00:59:17.439Z,86.5
2023-03-30T01:00:17.017Z,86.5
2023-03-30T01:01:16.621Z,86.4
2023-03-30T01:02:17.549Z,86.5
2023-03-30T01:03:17.341Z,86.5
2023-03-30T01:04:16.942Z,86.6
2023-03-30T01:05:17.505Z,86.6
2023-03-30T01:06:17.059Z,86.6
2023-03-30T01:07:16.619Z,86.6
2023-03-30T01:08:17.206Z,86.7
2023-03-30T01:09:16.744Z,87.0
2023-03-30T01:10:17.294Z,87.4
2023-03-30T01:11:16.854Z,87.2
2023-03-30T01:12:17.076Z,87.3
2023-03-30T01:13:16.662Z,87.0
2023-03-30T01:14:17.240Z,87.0
2023-03-30T01:15:16.800Z,86.9
2023-03-30T01:16:17.550Z,86.8
2023-03-30T01:17:17.185Z,86.6
2023-03-30T01:18:16.768Z,86.5
2023-03-30T01:19:17.305Z,86.5
2023-03-30T01:20:16.978Z,86.4
2023-03-30T01:21:16.695Z,86.2
2023-03-30T01:22:17.043Z,86.2
2023-03-30T01:23:16.597Z,86.4
2023-03-30T01:24:17.133Z,86.5
2023-03-30T01:25:16.701Z,86.3
2023-03-30T01:26:17.284Z,86.1
2023-03-30T01:27:16.892Z,85.9
2023-03-30T01:28:17.490Z,85.9
2023-03-30T01:29:17.092Z,85.8
2023-03-30T01:30:16.644Z,85.7
2023-03-30T01:31:17.184Z,85.8
2023-03-30T01:32:16.979Z,85.8
2023-03-30T01:33:16.500Z,85.6
2023-03-30T01:34:17.083Z,85.7
2023-03-30T01:35:16.746Z,85.6
2023-03-30T01:36:17.414Z,85.4
2023-03-30T01:37:16.980Z,85.4
2023-03-30T01:38:16.528Z,85.4
2023-03-30T01:39:17.124Z,85.4
2023-03-30T01:40:16.708Z,85.6
2023-03-30T01:41:17.316Z,85.5
2023-03-30T01:42:17.056Z,85.5
2023-03-30T01:43:16.633Z,85.4
2023-03-30T01:44:17.214Z,85.3
2023-03-30T01:45:16.790Z,85.3
2023-03-30T01:46:17.689Z,85.4
2023-03-30T01:47:17.341Z,85.2
2023-03-30T01:48:16.915Z,85.1
2023-03-30T01:49:17.497Z,85.1
2023-03-30T01:50:17.034Z,85.1
2023-03-30T01:51:16.594Z,85.0
2023-03-30T01:52:17.100Z,85.1
2023-03-30T01:53:16.669Z,85.4
2023-03-30T01:54:17.236Z,85.7
2023-03-30T01:55:16.828Z,85.5
2023-03-30T01:56:17.390Z,85.4
2023-03-30T01:57:16.995Z,84.8
2023-03-30T01:58:16.539Z,84.7
2023-03-30T01:59:17.104Z,84.9
2023-03-30T02:00:16.679Z,84.7
2023-03-30T02:01:17.228Z,84.8
2023-03-30T02:02:17.147Z,84.8
2023-03-30T02:03:16.900Z,84.9
2023-03-30T02:04:16.525Z,84.8
2023-03-30T02:05:17.080Z,84.8
2023-03-30T02:06:16.616Z,84.8
2023-03-30T02:07:17.172Z,85.0
2023-03-30T02:08:16.730Z,84.8
2023-03-30T02:09:17.289Z,84.7
2023-03-30T02:10:16.831Z,84.7
2023-03-30T02:11:17.407Z,84.6
2023-03-30T02:12:16.585Z,84.3
2023-03-30T02:13:17.124Z,84.2
2023-03-30T02:14:16.702Z,84.2
2023-03-30T02:15:17.260Z,84.3
2023-03-30T02:16:16.968Z,84.4
2023-03-30T02:17:16.521Z,84.3
2023-03-30T02:18:17.086Z,84.1
2023-03-30T02:19:16.628Z,84.5
2023-03-30T02:20:17.172Z,84.6
2023-03-30T02:21:16.739Z,84.7
2023-03-30T02:22:17.304Z,84.9
2023-03-30T02:23:16.868Z,85.4
2023-03-30T02:24:17.400Z,85.2
2023-03-30T02:25:16.945Z,84.9
2023-03-30T02:26:17.520Z,84.8
2023-03-30T02:27:17.086Z,84.8
2023-03-30T02:28:16.643Z,84.9
2023-03-30T02:29:17.192Z,85.1
2023-03-30T02:30:16.793Z,85.4
2023-03-30T02:31:17.491Z,85.6
2023-03-30T02:32:16.849Z,85.8
2023-03-30T02:33:17.540Z,86.0
2023-03-30T02:34:17.093Z,86.3
2023-03-30T02:35:16.669Z,86.9
2023-03-30T02:36:17.299Z,87.5
2023-03-30T02:37:16.877Z,87.6
2023-03-30T02:38:17.458Z,87.7
2023-03-30T02:39:17.007Z,87.7
2023-03-30T02:40:16.603Z,87.6
2023-03-30T02:41:17.151Z,87.6
2023-03-30T02:42:16.975Z,87.5
2023-03-30T02:43:16.488Z,87.3
2023-03-30T02:44:17.063Z,87.3
2023-03-30T02:45:16.624Z,87.4
2023-03-30T02:46:17.376Z,87.4
2023-03-30T02:47:17.000Z,87.6
2023-03-30T02:48:16.549Z,88.5
2023-03-30T02:49:17.147Z,88.8
2023-03-30T02:50:16.745Z,88.9
2023-03-30T02:51:17.309Z,89.5
2023-03-30T02:52:17.438Z,89.4
2023-03-30T02:53:16.979Z,89.2
2023-03-30T02:54:16.548Z,89.3
2023-03-30T02:55:17.147Z,89.8
2023-03-30T02:56:16.694Z,89.9
2023-03-30T02:57:17.282Z,89.8
2023-03-30T02:58:16.940Z,90.1
2023-03-30T02:59:17.510Z,90.4
2023-03-30T03:00:17.074Z,90.5
2023-03-30T03:01:16.692Z,90.3
2023-03-30T03:02:17.029Z,90.2
2023-03-30T03:03:16.753Z,90.1
2023-03-30T03:04:17.405Z,90.0
2023-03-30T03:05:16.968Z,90.0
2023-03-30T03:06:16.523Z,90.0
2023-03-30T03:07:17.066Z,90.0
2023-03-30T03:08:16.628Z,89.9
2023-03-30T03:09:17.160Z,89.9
2023-03-30T03:10:16.688Z,90.0
2023-03-30T03:11:17.240Z,90.1
2023-03-30T03:12:17.257Z,90.3
2023-03-30T03:13:16.844Z,90.4
2023-03-30T03:14:17.396Z,90.4
2023-03-30T03:15:16.946Z,90.3
2023-03-30T03:16:17.662Z,90.2
2023-03-30T03:17:17.277Z,90.2
2023-03-30T03:18:16.826Z,90.3
2023-03-30T03:19:17.392Z,90.6
2023-03-30T03:20:16.936Z,90.7
2023-03-30T03:21:17.478Z,90.9
2023-03-30T03:22:16.656Z,91.1
2023-03-30T03:23:17.204Z,91.1
2023-03-30T03:24:16.755Z,91.3
2023-03-30T03:25:17.316Z,91.5
2023-03-30T03:26:16.884Z,91.5
2023-03-30T03:27:17.473Z,91.6
2023-03-30T03:28:17.027Z,91.5
2023-03-30T03:29:16.597Z,91.8
2023-03-30T03:30:17.196Z,91.8
2023-03-30T03:31:16.824Z,91.7
2023-03-30T03:32:16.977Z,91.7
2023-03-30T03:33:16.533Z,91.7
2023-03-30T03:34:17.119Z,91.8
2023-03-30T03:35:16.661Z,91.8
2023-03-30T03:36:17.265Z,91.9
2023-03-30T03:37:16.858Z,91.9
2023-03-30T03:38:17.440Z,91.8
2023-03-30T03:39:16.992Z,92.0
2023-03-30T03:40:16.547Z,92.1
2023-03-30T03:41:17.154Z,92.0
2023-03-30T03:42:17.121Z,91.9
2023-03-30T03:43:16.694Z,91.7
2023-03-30T03:44:17.273Z,91.6
2023-03-30T03:45:16.827Z,91.5
2023-03-30T03:46:17.472Z,91.4
2023-03-30T03:47:17.091Z,91.3
2023-03-30T03:48:16.639Z,91.3
2023-03-30T03:49:17.152Z,91.2
2023-03-30T03:50:16.705Z,91.2
2023-03-30T03:51:17.249Z,91.2
2023-03-30T03:52:16.954Z,91.3
2023-03-30T03:53:17.486Z,91.5
2023-03-30T03:54:17.059Z,91.7
2023-03-30T03:55:16.621Z,91.7
2023-03-30T03:56:17.201Z,91.9
2023-03-30T03:57:16.866Z,91.9
2023-03-30T03:58:17.546Z,92.0
2023-03-30T03:59:17.193Z,92.0
2023-03-30T04:00:16.803Z,91.8
2023-03-30T04:01:17.401Z,91.7
2023-03-30T04:02:17.213Z,91.6
2023-03-30T04:03:16.849Z,91.6
2023-03-30T04:04:17.574Z,91.6
2023-03-30T04:05:17.163Z,91.6
2023-03-30T04:06:16.696Z,91.6
2023-03-30T04:07:17.295Z,91.6
2023-03-30T04:08:16.858Z,91.5
2023-03-30T04:09:17.435Z,91.5
2023-03-30T04:10:17.009Z,91.6
2023-03-30T04:11:16.596Z,91.9
2023-03-30T04:12:17.066Z,92.0
2023-03-30T04:13:16.630Z,92.0
2023-03-30T04:14:17.205Z,92.1
2023-03-30T04:15:16.755Z,92.0
2023-03-30T04:16:17.357Z,92.0
2023-03-30T04:17:16.991Z,91.9
2023-03-30T04:18:16.603Z,91.9
2023-03-30T04:19:17.149Z,91.8
2023-03-30T04:20:16.728Z,91.8
2023-03-30T04:21:17.287Z,92.2
2023-03-30T04:22:16.861Z,92.2
2023-03-30T04:23:17.430Z,92.2
2023-03-30T04:24:17.090Z,92.5
2023-03-30T04:25:16.732Z,92.5
2023-03-30T04:26:17.276Z,92.6
2023-03-30T04:27:16.860Z,92.6
2023-03-30T04:28:17.469Z,92.5
2023-03-30T04:29:17.032Z,92.4
2023-03-30T04:30:16.598Z,92.2
2023-03-30T04:31:17.262Z,92.2
2023-03-30T04:32:16.812Z,92.3
2023-03-30T04:33:17.336Z,92.3
2023-03-30T04:34:16.899Z,92.6
2023-03-30T04:35:17.452Z,92.8
2023-03-30T04:36:17.074Z,93.0
2023-03-30T04:37:16.682Z,93.2
2023-03-30T04:38:17.250Z,93.2
2023-03-30T04:39:16.815Z,93.2
2023-03-30T04:40:17.393Z,93.4
2023-03-30T04:41:16.965Z,93.3
2023-03-30T04:42:16.648Z,93.5
2023-03-30T04:43:17.185Z,94.2
2023-03-30T04:44:16.730Z,94.3
2023-03-30T04:45:17.295Z,94.4
2023-03-30T04:46:17.028Z,94.3
2023-03-30T04:47:16.609Z,94.5
2023-03-30T04:48:17.155Z,94.3
2023-03-30T04:49:16.714Z,94.2
2023-03-30T04:50:17.263Z,94.2
2023-03-30T04:51:16.821Z,94.2
2023-03-30T04:52:16.775Z,94.3
2023-03-30T04:53:17.392Z,94.3
2023-03-30T04:54:16.979Z,94.3
2023-03-30T04:55:16.525Z,94.2
2023-03-30T04:56:17.102Z,94.3
2023-03-30T04:57:16.744Z,94.5
2023-03-30T04:58:17.303Z,94.4
2023-03-30T04:59:16.855Z,94.8
2023-03-30T05:00:17.394Z,94.9
2023-03-30T05:01:16.976Z,94.8
2023-03-30T05:02:16.592Z,94.6
2023-03-30T05:03:18.087Z,94.5
2023-03-30T05:04:17.046Z,94.4
2023-03-30T05:05:16.606Z,94.4
2023-03-30T05:06:17.185Z,94.6
2023-03-30T05:07:16.763Z,94.7
2023-03-30T05:08:17.372Z,94.8
2023-03-30T05:09:16.957Z,94.8
2023-03-30T05:10:16.588Z,94.9
2023-03-30T05:11:17.155Z,95.3
2023-03-30T05:12:16.887Z,95.7
2023-03-30T05:13:17.498Z,96.4
2023-03-30T05:14:17.069Z,96.7
2023-03-30T05:15:16.629Z,96.8
2023-03-30T05:16:17.261Z,97.0
2023-03-30T05:17:16.961Z,96.9
2023-03-30T05:18:16.616Z,96.8
2023-03-30T05:19:17.220Z,96.5
2023-03-30T05:20:16.841Z,96.6
2023-03-30T05:21:17.407Z,97.3
2023-03-30T05:22:16.650Z,97.3
2023-03-30T05:23:17.244Z,97.6
2023-03-30T05:24:16.803Z,97.7
2023-03-30T05:25:17.327Z,97.7
2023-03-30T05:26:17.022Z,98.0
2023-03-30T05:27:16.662Z,98.1
2023-03-30T05:28:17.417Z,98.0
2023-03-30T05:29:16.964Z,98.0
2023-03-30T05:30:17.547Z,97.9
2023-03-30T05:31:17.242Z,98.1
2023-03-30T05:32:16.781Z,98.2
2023-03-30T05:33:17.357Z,98.1
2023-03-30T05:34:16.938Z,98.0
2023-03-30T05:35:17.504Z,98.0
2023-03-30T05:36:17.149Z,97.8
2023-03-30T05:37:16.766Z,97.8
2023-03-30T05:38:17.291Z,97.8
2023-03-30T05:39:16.875Z,97.8
2023-03-30T05:40:17.455Z,98.0
2023-03-30T05:41:17.007Z,98.2
2023-03-30T05:42:16.720Z,98.2
2023-03-30T05:43:17.266Z,98.5
2023-03-30T05:44:16.809Z,98.5
2023-03-30T05:45:17.383Z,98.6
2023-03-30T05:46:17.023Z,98.7
2023-03-30T05:47:16.677Z,98.9
2023-03-30T05:48:17.207Z,98.9
2023-03-30T05:49:16.754Z,98.9
2023-03-30T05:50:17.332Z,98.8
2023-03-30T05:51:16.876Z,98.8
2023-03-30T05:52:17.166Z,98.7
2023-03-30T05:53:16.707Z,98.7
2023-03-30T05:54:17.256Z,98.8
2023-03-30T05:55:16.813Z,98.7
2023-03-30T05:56:17.395Z,98.8
2023-03-30T05:57:17.000Z,98.8
2023-03-30T05:58:16.593Z,98.7
2023-03-30T05:59:17.137Z,98.7
2023-03-30T06:00:16.676Z,98.6
2023-03-30T06:01:17.251Z,98.7
2023-03-30T06:02:16.977Z,98.7
2023-03-30T06:03:16.780Z,98.7
2023-03-30T06:04:17.539Z,98.9
2023-03-30T06:05:17.139Z,99.0
2023-03-30T06:06:16.721Z,99.0
2023-03-30T06:07:17.267Z,99.1
2023-03-30T06:08:16.961Z,99.0
2023-03-30T06:09:16.568Z,99.0
2023-03-30T06:10:17.193Z,99.0
2023-03-30T06:11:16.758Z,99.0
2023-03-30T06:12:17.409Z,99.1
2023-03-30T06:13:16.957Z,99.0
2023-03-30T06:14:17.528Z,99.1
2023-03-30T06:15:17.119Z,99.1
2023-03-30T06:16:16.851Z,99.1
2023-03-30T06:17:16.535Z,99.2
2023-03-30T06:18:17.189Z,99.3
2023-03-30T06:19:16.775Z,99.3
2023-03-30T06:20:17.335Z,99.4
2023-03-30T06:21:16.918Z,99.5
2023-03-30T06:22:16.819Z,99.5
2023-03-30T06:23:17.376Z,99.4
2023-03-30T06:24:16.933Z,99.4
2023-03-30T06:25:17.547Z,99.4
2023-03-30T06:26:17.107Z,99.3
2023-03-30T06:27:16.656Z,99.3
2023-03-30T06:28:17.213Z,99.3
2023-03-30T06:29:16.797Z,99.4
2023-03-30T06:30:17.350Z,99.4
2023-03-30T06:31:17.090Z,99.4
2023-03-30T06:32:17.261Z,99.3
2023-03-30T06:33:16.827Z,99.3
2023-03-30T06:34:17.394Z,99.3
2023-03-30T06:35:17.042Z,99.2
2023-03-30T06:36:16.908Z,99.1
2023-03-30T06:37:17.490Z,99.1
2023-03-30T06:38:17.073Z,99.0
2023-03-30T06:39:16.756Z,98.9
2023-03-30T06:40:17.529Z,98.8
2023-03-30T06:41:17.083Z,98.7
2023-03-30T06:42:17.037Z,98.8
2023-03-30T06:43:16.610Z,99.0
2023-03-30T06:44:17.184Z,99.0
2023-03-30T06:45:16.771Z,99.0
2023-03-30T06:46:17.422Z,99.0
2023-03-30T06:47:17.004Z,99.0
2023-03-30T06:48:16.865Z,99.0
2023-03-30T06:49:17.455Z,99.1
2023-03-30T06:50:16.987Z,99.2
2023-03-30T06:51:16.610Z,99.1
2023-03-30T06:52:17.399Z,99.0
2023-03-30T06:53:16.960Z,99.0
2023-03-30T06:54:17.512Z,99.1
2023-03-30T06:55:17.081Z,99.1
2023-03-30T06:56:16.645Z,99.1
2023-03-30T06:57:17.290Z,99.1
2023-03-30T06:58:16.906Z,99.0
2023-03-30T06:59:17.442Z,99.1
2023-03-30T07:00:16.987Z,98.9
2023-03-30T07:01:16.587Z,98.9
2023-03-30T07:02:16.896Z,98.8
2023-03-30T07:03:17.639Z,98.8
2023-03-30T07:04:17.331Z,98.8
2023-03-30T07:05:16.916Z,98.8
2023-03-30T07:06:19.388Z,98.8
2023-03-30T07:07:17.022Z,98.8
2023-03-30T07:08:16.584Z,98.8
2023-03-30T07:09:17.143Z,98.7
2023-03-30T07:10:16.748Z,98.6
2023-03-30T07:11:17.331Z,98.5
2023-03-30T07:12:17.003Z,98.6
2023-03-30T07:13:16.613Z,98.6
2023-03-30T07:14:17.203Z,98.6
2023-03-30T07:15:16.790Z,98.6
2023-03-30T07:16:17.391Z,98.6
2023-03-30T07:17:17.146Z,98.5
2023-03-30T07:18:16.874Z,98.5
2023-03-30T07:19:17.507Z,98.5
2023-03-30T07:20:17.112Z,98.5
2023-03-30T07:21:16.669Z,98.5
2023-03-30T07:22:17.485Z,98.5
2023-03-30T07:23:17.066Z,98.4
2023-03-30T07:24:16.611Z,98.4
2023-03-30T07:25:17.197Z,98.4
2023-03-30T07:26:16.752Z,98.4
2023-03-30T07:27:17.312Z,98.5
2023-03-30T07:28:16.879Z,98.6
2023-03-30T07:29:17.432Z,98.7
2023-03-30T07:30:22.906Z,98.8
2023-03-30T07:31:16.626Z,98.8
2023-03-30T07:32:17.387Z,98.9
2023-03-30T07:33:17.037Z,98.9
2023-03-30T07:34:16.611Z,99.0
2023-03-30T07:35:17.199Z,98.9
2023-03-30T07:36:16.892Z,98.9
2023-03-30T07:37:21.093Z,98.9
2023-03-30T07:38:16.713Z,98.9
2023-03-30T07:39:17.368Z,99.3
2023-03-30T07:40:17.030Z,99.5
2023-03-30T07:41:16.652Z,99.8
2023-03-30T07:42:17.505Z,99.9
2023-03-30T07:43:17.131Z,100.0
2023-03-30T07:44:16.700Z,100.0
2023-03-30T07:45:17.246Z,100.0
2023-03-30T07:46:16.892Z,100.0
2023-03-30T07:47:17.523Z,100.0
2023-03-30T07:48:17.178Z,100.0
2023-03-30T07:49:16.826Z,100.0
2023-03-30T07:50:17.378Z,100.0
2023-03-30T07:51:16.974Z,100.0
2023-03-30T07:52:17.159Z,100.0
2023-03-30T07:53:16.742Z,100.0
2023-03-30T07:54:17.327Z,100.0
2023-03-30T07:55:16.890Z,100.0
2023-03-30T07:56:17.490Z,100.0
2023-03-30T07:57:17.102Z,100.0
2023-03-30T07:58:16.664Z,100.0
2023-03-30T07:59:17.217Z,100.0
2023-03-30T08:00:16.792Z,100.0
2023-03-30T08:01:17.348Z,100.0
2023-03-30T08:02:17.023Z,100.0
2023-03-30T08:03:17.000Z,100.0
2023-03-30T08:04:16.965Z,100.0
2023-03-30T08:05:16.726Z,100.0
2023-03-30T08:06:17.372Z,100.0
2023-03-30T08:07:16.983Z,100.0
2023-03-30T08:08:16.524Z,100.0
2023-03-30T08:09:17.069Z,100.0
2023-03-30T08:10:16.655Z,100.0
2023-03-30T08:11:17.209Z,100.0
2023-03-30T08:12:16.913Z,100.0
2023-03-30T08:13:21.729Z,100.0
2023-03-30T08:14:16.581Z,100.0
2023-03-30T08:15:17.146Z,100.0
2023-03-30T08:16:16.801Z,100.0
2023-03-30T08:17:17.385Z,100.0
2023-03-30T08:18:16.977Z,100.0
2023-03-30T08:19:16.527Z,100.0
2023-03-30T08:20:17.092Z,100.0
2023-03-30T08:21:16.644Z,100.0
2023-03-30T08:22:17.054Z,100.0
2023-03-30T08:23:16.607Z,100.0
2023-03-30T08:24:17.166Z,100.0
2023-03-30T08:25:16.737Z,100.0
2023-03-30T08:26:17.310Z,100.0
2023-03-30T08:27:16.972Z,100.0
2023-03-30T08:28:16.594Z,100.0
2023-03-30T08:29:17.268Z,100.0
2023-03-30T08:30:16.832Z,100.0
2023-03-30T08:31:17.456Z,100.0
2023-03-30T08:32:16.991Z,100.0
2023-03-30T08:33:16.679Z,100.0
2023-03-30T08:34:17.236Z,100.0
2023-03-30T08:35:16.780Z,100.0
2023-03-30T08:36:17.331Z,100.0
2023-03-30T08:37:16.883Z,100.0
2023-03-30T08:38:17.555Z,100.0
2023-03-30T08:39:17.310Z,100.0
2023-03-30T08:40:19.918Z,100.0
2023-03-30T08:41:16.569Z,100.0
2023-03-30T08:42:17.265Z,100.0
2023-03-30T08:43:16.824Z,100.0
2023-03-30T08:44:17.385Z,100.0
2023-03-30T08:45:16.930Z,100.0
2023-03-30T08:46:17.658Z,100.0
2023-03-30T08:47:17.228Z,100.0
2023-03-30T08:48:16.790Z,100.0
2023-03-30T08:49:17.322Z,100.0
2023-03-30T08:50:16.928Z,100.0
2023-03-30T08:51:17.491Z,100.0
2023-03-30T08:52:17.092Z,100.0
2023-03-30T08:53:16.651Z,100.0
2023-03-30T08:54:17.199Z,100.0
2023-03-30T08:55:16.804Z,100.0
2023-03-30T08:56:17.382Z,100.0
2023-03-30T08:57:20.891Z,100.0
2023-03-30T08:58:16.657Z,100.0
2023-03-30T08:59:17.220Z,100.0
2023-03-30T09:00:16.811Z,100.0
2023-03-30T09:01:17.543Z,100.0
2023-03-30T09:02:17.145Z,100.0
2023-03-30T09:03:16.801Z,100.0
2023-03-30T09:04:17.420Z,100.0
2023-03-30T09:05:17.063Z,100.0
2023-03-30T09:06:16.801Z,100.0
2023-03-30T09:07:17.357Z,100.0
2023-03-30T09:08:16.929Z,100.0
2023-03-30T09:09:17.493Z,100.0
2023-03-30T09:10:17.037Z,100.0
2023-03-30T09:11:16.612Z,100.0
2023-03-30T09:12:17.229Z,100.0
2023-03-30T09:13:16.791Z,100.0
2023-03-30T09:14:17.413Z,100.0
2023-03-30T09:15:17.107Z,100.0
2023-03-30T09:16:16.743Z,100.0
2023-03-30T09:17:17.386Z,100.0
2023-03-30T09:18:16.980Z,100.0
2023-03-30T09:19:16.586Z,100.0
2023-03-30T09:20:17.208Z,100.0
2023-03-30T09:21:16.803Z,100.0
2023-03-30T09:22:16.748Z,100.0
2023-03-30T09:23:17.287Z,100.0
2023-03-30T09:24:16.871Z,100.0
2023-03-30T09:25:17.490Z,100.0
2023-03-30T09:26:17.053Z,100.0
2023-03-30T09:27:16.640Z,100.0
2023-03-30T09:28:17.196Z,100.0
2023-03-30T09:29:16.755Z,100.0
2023-03-30T09:30:17.316Z,100.0
2023-03-30T09:31:19.251Z,100.0
2023-03-30T09:32:16.714Z,100.0
2023-03-30T09:33:17.258Z,100.0
2023-03-30T09:34:16.798Z,100.0
2023-03-30T09:35:17.392Z,100.0
2023-03-30T09:36:17.162Z,100.0
2023-03-30T09:37:16.796Z,100.0
2023-03-30T09:38:17.359Z,100.0
2023-03-30T09:39:16.912Z,100.0
2023-03-30T09:40:17.471Z,100.0
2023-03-30T09:41:17.064Z,100.0
2023-03-30T09:42:16.841Z,100.0
2023-03-30T09:43:17.396Z,100.0
2023-03-30T09:44:16.955Z,100.0
2023-03-30T09:45:17.514Z,100.0
2023-03-30T09:46:17.187Z,100.0
2023-03-30T09:47:16.752Z,100.0
2023-03-30T09:48:17.302Z,100.0
2023-03-30T09:49:16.877Z,100.0
2023-03-30T09:50:17.557Z,100.0
2023-03-30T09:51:17.152Z,100.0
2023-03-30T09:52:17.006Z,100.0
2023-03-30T09:53:16.558Z,100.0
2023-03-30T09:54:17.120Z,100.0
2023-03-30T09:55:16.732Z,100.0
2023-03-30T09:56:17.298Z,100.0
2023-03-30T09:57:16.905Z,100.0
2023-03-30T09:58:17.478Z,100.0
2023-03-30T09:59:17.014Z,100.0
2023-03-30T10:00:16.601Z,100.0
2023-03-30T10:01:17.218Z,100.0
2023-03-30T10:02:17.214Z,100.0
2023-03-30T10:03:16.994Z,100.0
2023-03-30T10:04:17.172Z,100.0
2023-03-30T10:05:16.911Z,100.0
2023-03-30T10:06:17.493Z,100.0
2023-03-30T10:07:19.146Z,100.0
2023-03-30T10:08:16.711Z,100.0
2023-03-30T10:09:17.264Z,100.0
2023-03-30T10:10:16.834Z,100.0
2023-03-30T10:11:17.429Z,100.0
2023-03-30T10:12:16.642Z,100.0
2023-03-30T10:13:17.220Z,100.0
2023-03-30T10:14:16.815Z,100.0
2023-03-30T10:15:17.437Z,100.0
2023-03-30T10:16:17.141Z,100.0
2023-03-30T10:17:16.732Z,100.0
2023-03-30T10:18:17.319Z,100.0
2023-03-30T10:19:16.947Z,100.0
2023-03-30T10:20:17.489Z,100.0
2023-03-30T10:21:17.064Z,100.0
2023-03-30T10:22:16.943Z,100.0
2023-03-30T10:23:17.500Z,100.0
2023-03-30T10:24:17.068Z,99.9
2023-03-30T10:25:16.673Z,99.9
2023-03-30T10:26:17.255Z,99.8
2023-03-30T10:27:16.814Z,99.8
2023-03-30T10:28:17.409Z,99.6
2023-03-30T10:29:16.982Z,99.5
2023-03-30T10:30:16.535Z,99.6
2023-03-30T10:31:17.199Z,99.8
2023-03-30T10:32:16.842Z,99.6
2023-03-30T10:33:17.409Z,99.5
2023-03-30T10:34:16.967Z,99.5
2023-03-30T10:35:17.489Z,99.5
2023-03-30T10:36:17.184Z,99.3
2023-03-30T10:37:16.808Z,99.3
2023-03-30T10:38:17.403Z,99.3
2023-03-30T10:39:16.996Z,99.3
2023-03-30T10:40:16.568Z,99.3
2023-03-30T10:41:17.129Z,99.5
2023-03-30T10:42:17.141Z,99.3
2023-03-30T10:43:16.717Z,99.3
2023-03-30T10:44:17.254Z,99.3
2023-03-30T10:45:16.945Z,99.2
2023-03-30T10:46:21.050Z,99.3
2023-03-30T10:47:16.785Z,99.2
2023-03-30T10:48:17.485Z,99.2
2023-03-30T10:49:17.044Z,99.1
2023-03-30T10:50:16.696Z,99.1
2023-03-30T10:51:17.251Z,99.1
2023-03-30T10:52:16.905Z,99.1
2023-03-30T10:53:17.455Z,99.1
2023-03-30T10:54:17.037Z,99.1
2023-03-30T10:55:16.601Z,99.1
2023-03-30T10:56:17.147Z,99.0
2023-03-30T10:57:16.885Z,98.9
2023-03-30T10:58:17.474Z,98.8
2023-03-30T10:59:17.075Z,98.9
2023-03-30T11:00:16.617Z,99.0
2023-03-30T11:01:17.209Z,98.7
2023-03-30T11:02:16.665Z,98.8
2023-03-30T11:03:17.442Z,98.3
2023-03-30T11:04:24.436Z,98.5
2023-03-30T11:05:17.163Z,97.6
2023-03-30T11:06:16.719Z,97.8
2023-03-30T11:07:17.306Z,97.4
2023-03-30T11:08:16.854Z,96.9
2023-03-30T11:09:17.427Z,96.6
2023-03-30T11:10:16.974Z,96.7
2023-03-30T11:11:16.536Z,96.1
2023-03-30T11:12:16.658Z,96.4
2023-03-30T11:13:17.237Z,96.1
2023-03-30T11:14:16.813Z,96.5
2023-03-30T11:15:17.362Z,96.4
2023-03-30T11:16:17.030Z,96.1
2023-03-30T11:17:16.594Z,95.7
2023-03-30T11:18:17.291Z,95.4
2023-03-30T11:19:16.918Z,95.5
2023-03-30T11:20:17.508Z,96.0
2023-03-30T11:21:17.054Z,96.1
2023-03-30T11:22:16.845Z,96.2
2023-03-30T11:23:17.442Z,96.0
2023-03-30T11:24:16.977Z,95.8
2023-03-30T11:25:16.911Z,95.9
2023-03-30T11:26:17.485Z,95.8
2023-03-30T11:27:17.050Z,96.1
2023-03-30T11:28:16.614Z,96.3
2023-03-30T11:29:17.197Z,96.2
2023-03-30T11:30:16.770Z,96.0
2023-03-30T11:31:17.360Z,95.8
2023-03-30T11:32:17.312Z,95.7
2023-03-30T11:33:16.909Z,95.7
2023-03-30T11:34:17.479Z,95.5
2023-03-30T11:35:17.106Z,95.0
2023-03-30T11:36:16.768Z,94.8
2023-03-30T11:37:17.385Z,94.2
2023-03-30T11:38:16.946Z,94.0
2023-03-30T11:39:32.447Z,94.0
2023-03-30T11:40:17.688Z,93.7
2023-03-30T11:41:17.319Z,94.2
2023-03-30T11:42:17.048Z,93.3
2023-03-30T11:43:16.589Z,92.8
2023-03-30T11:44:17.138Z,92.8
2023-03-30T11:45:16.721Z,93.0
2023-03-30T11:46:17.371Z,92.5
2023-03-30T11:47:16.997Z,92.1
2023-03-30T11:48:16.679Z,91.9
2023-03-30T11:49:17.285Z,92.7
2023-03-30T11:50:16.825Z,91.6
2023-03-30T11:51:17.391Z,91.8
2023-03-30T11:52:17.160Z,91.6
2023-03-30T11:53:16.735Z,91.4
2023-03-30T11:54:17.275Z,90.9
2023-03-30T11:55:16.831Z,90.4
2023-03-30T11:56:17.411Z,90.3
2023-03-30T11:57:17.030Z,90.1
2023-03-30T11:58:16.597Z,90.0
2023-03-30T11:59:17.164Z,89.1
2023-03-30T12:00:16.783Z,88.6
2023-03-30T12:01:17.322Z,88.8
2023-03-30T12:02:16.745Z,88.7
2023-03-30T12:03:17.545Z,88.3
2023-03-30T12:04:17.216Z,88.6
2023-03-30T12:05:16.801Z,88.8
2023-03-30T12:06:17.338Z,88.7
2023-03-30T12:07:16.885Z,88.7
2023-03-30T12:08:17.437Z,88.9
2023-03-30T12:09:16.975Z,88.6
2023-03-30T12:10:16.527Z,89.3
2023-03-30T12:11:17.047Z,88.8
2023-03-30T12:12:17.221Z,88.6
2023-03-30T12:13:16.792Z,89.0
2023-03-30T12:14:17.393Z,88.6
2023-03-30T12:15:17.000Z,87.1
2023-03-30T12:16:16.619Z,86.2
2023-03-30T12:17:17.202Z,86.4
2023-03-30T12:18:16.758Z,86.7
2023-03-30T12:19:17.395Z,87.3
2023-03-30T12:20:16.972Z,88.2
2023-03-30T12:21:16.492Z,87.7
2023-03-30T12:22:17.292Z,87.5
2023-03-30T12:23:16.902Z,87.8
2023-03-30T12:24:17.540Z,87.4
2023-03-30T12:25:17.082Z,85.9
2023-03-30T12:26:16.662Z,85.6
2023-03-30T12:27:17.232Z,84.6
2023-03-30T12:28:16.777Z,85.1
2023-03-30T12:29:56.732Z,84.9
2023-03-30T12:30:16.825Z,84.3
2023-03-30T12:31:17.508Z,83.6
2023-03-30T12:32:16.805Z,82.5
2023-03-30T12:33:17.364Z,82.1
2023-03-30T12:34:16.934Z,82.0
2023-03-30T12:35:16.569Z,81.3
2023-03-30T12:36:17.183Z,81.3
2023-03-30T12:37:16.746Z,82.0
2023-03-30T12:38:21.349Z,81.9
2023-03-30T12:39:17.371Z,81.4
2023-03-30T12:40:16.943Z,80.8
2023-03-30T12:41:17.559Z,80.9
2023-03-30T12:42:17.105Z,80.1
2023-03-30T12:43:16.685Z,80.1
2023-03-30T12:44:17.244Z,79.7
2023-03-30T12:45:16.811Z,79.1
2023-03-30T12:46:17.485Z,79.6
2023-03-30T12:47:17.099Z,79.0
2023-03-30T12:48:16.643Z,79.0
2023-03-30T12:49:17.191Z,79.6
2023-03-30T12:50:16.775Z,78.8
2023-03-30T12:51:17.332Z,78.4
2023-03-30T12:52:17.236Z,78.5
2023-03-30T12:53:16.756Z,77.9
2023-03-30T12:54:17.291Z,78.4
2023-03-30T12:55:16.865Z,77.7
2023-03-30T12:56:17.469Z,77.8
2023-03-30T12:57:17.214Z,78.0
2023-03-30T12:58:16.806Z,78.4
2023-03-30T12:59:17.343Z,78.4
2023-03-30T13:00:16.926Z,77.9
2023-03-30T13:01:17.609Z,77.8
2023-03-30T13:02:17.027Z,77.7
2023-03-30T13:03:16.603Z,78.3
2023-03-30T13:04:17.200Z,78.2
2023-03-30T13:05:16.839Z,77.7
2023-03-30T13:06:17.405Z,77.6
2023-03-30T13:07:18.018Z,78.1
2023-03-30T13:08:16.565Z,77.6
2023-03-30T13:09:17.128Z,77.4
2023-03-30T13:10:16.668Z,77.4
2023-03-30T13:11:17.264Z,78.1
2023-03-30T13:12:17.100Z,77.5
2023-03-30T13:13:16.661Z,77.3